Time;durP1;ratioP1;P1;durP2;ratioP2;P2;SDS_P1;SDS_P2;PMS_P1;PMS_P2;Temp;Humidity;BMP_temperature;BMP_pressure;BME280_temperature;BME280_humidity;BME280_pressure;Samples;Min_cycle;Max_cycle;Signal;HPM_P1;HPM_P2
2022/10/27 00:01:59;;;;;;;8.73;2.80;;;14.80;99.90;;;;;;5050571;28;20037;-71
2022/10/27 00:04:25;;;;;;;6.80;2.65;;;14.80;99.90;;;;;;5050469;28;20056;-71
2022/10/27 00:06:51;;;;;;;7.75;2.80;;;14.80;99.90;;;;;;5050430;28;20030;-70
2022/10/27 00:09:17;;;;;;;8.60;2.58;;;14.90;99.90;;;;;;5050275;28;20466;-71
2022/10/27 00:11:42;;;;;;;5.00;2.40;;;14.80;99.90;;;;;;5050295;28;20036;-71
2022/10/27 00:14:08;;;;;;;6.65;2.80;;;14.90;99.90;;;;;;5051988;28;20056;-71
2022/10/27 00:16:34;;;;;;;6.65;2.55;;;14.90;99.90;;;;;;5053900;28;20033;-71
2022/10/27 00:19:01;;;;;;;5.20;2.63;;;14.90;99.90;;;;;;5035898;28;20029;-72
2022/10/27 00:21:26;;;;;;;6.28;2.75;;;14.80;99.90;;;;;;5053774;28;20021;-72
2022/10/27 00:23:52;;;;;;;4.72;2.40;;;14.80;99.90;;;;;;5053972;28;20413;-72
2022/10/27 00:26:20;;;;;;;7.50;2.60;;;14.80;99.90;;;;;;5053827;28;20021;-70
2022/10/27 00:28:47;;;;;;;5.97;2.55;;;14.80;99.90;;;;;;5053731;28;20092;-70
2022/10/27 00:31:14;;;;;;;7.93;2.55;;;14.80;99.90;;;;;;5053907;28;20029;-70
2022/10/27 00:33:41;;;;;;;5.97;2.47;;;14.80;99.90;;;;;;5053697;28;20052;-70
2022/10/27 00:36:18;;;;;;;4.75;2.22;;;14.80;99.90;;;;;;5053650;28;20199;-71
2022/10/27 00:38:44;;;;;;;6.28;2.45;;;14.80;99.90;;;;;;5053474;28;20033;-71
2022/10/27 00:41:28;;;;;;;5.97;2.33;;;14.80;99.90;;;;;;5053408;28;20025;-70
2022/10/27 00:43:54;;;;;;;6.82;2.40;;;14.80;99.90;;;;;;5053523;28;20091;-71
2022/10/27 00:46:40;;;;;;;4.35;2.45;;;14.80;99.90;;;;;;5053479;28;20025;-70
2022/10/27 00:49:10;;;;;;;8.05;2.45;;;14.70;99.90;;;;;;5053469;28;20116;-71
2022/10/27 00:51:42;;;;;;;8.10;2.50;;;14.70;99.90;;;;;;5053238;28;20096;-70
2022/10/27 00:54:09;;;;;;;5.75;2.20;;;14.70;99.90;;;;;;5035559;28;20573;-70
2022/10/27 00:56:36;;;;;;;6.38;2.35;;;14.60;99.90;;;;;;5035422;28;20121;-71
2022/10/27 00:59:02;;;;;;;7.75;2.60;;;14.70;99.90;;;;;;5053147;28;20044;-71
2022/10/27 01:01:28;;;;;;;8.18;2.33;;;14.70;99.90;;;;;;5053162;28;20481;-72
2022/10/27 01:03:55;;;;;;;7.65;2.42;;;14.70;99.90;;;;;;5053206;28;20025;-71
2022/10/27 01:06:21;;;;;;;5.85;2.35;;;14.70;99.90;;;;;;5053109;28;20024;-71
2022/10/27 01:08:48;;;;;;;4.30;2.20;;;14.70;99.90;;;;;;5035186;28;20044;-73
2022/10/27 01:11:14;;;;;;;9.40;2.67;;;14.70;99.90;;;;;;5053147;28;20389;-70
2022/10/27 01:13:40;;;;;;;7.85;2.15;;;14.80;99.90;;;;;;5035433;28;20051;-71
2022/10/27 01:16:24;;;;;;;7.65;2.80;;;14.80;99.90;;;;;;5052811;28;20029;-71
2022/10/27 01:19:08;;;;;;;7.43;2.20;;;14.70;99.90;;;;;;5052787;28;20470;-71
2022/10/27 01:22:12;;;;;;;8.85;2.58;;;14.70;99.90;;;;;;5052834;28;20029;-73
2022/10/27 01:24:37;;;;;;;7.05;2.50;;;14.70;99.90;;;;;;5052725;28;20029;-71
2022/10/27 01:27:13;;;;;;;9.25;2.83;;;14.70;99.90;;;;;;5064547;22;20044;-65
2022/10/27 01:29:59;;;;;;;5.28;2.45;;;14.60;99.90;;;;;;5033069;28;20057;-64
2022/10/27 01:32:49;;;;;;;6.47;2.25;;;14.70;99.90;;;;;;5033077;28;20041;-64
2022/10/27 01:35:24;;;;;;;7.30;2.42;;;14.60;99.90;;;;;;5032949;28;20040;-67
2022/10/27 01:37:54;;;;;;;6.72;2.35;;;14.60;99.90;;;;;;5052570;28;20634;-64
2022/10/27 01:40:23;;;;;;;5.45;2.40;;;14.70;99.90;;;;;;5052711;28;20025;-64
2022/10/27 01:42:55;;;;;;;4.28;2.20;;;14.60;99.90;;;;;;5052973;28;20095;-64
2022/10/27 01:45:28;;;;;;;4.45;1.90;;;14.60;99.90;;;;;;5052671;28;20588;-64
2022/10/27 01:47:55;;;;;;;8.60;2.60;;;14.70;99.90;;;;;;5034895;28;20064;-64
2022/10/27 01:50:31;;;;;;;10.50;2.85;;;14.70;99.90;;;;;;5052681;28;20040;-64
2022/10/27 01:52:57;;;;;;;7.43;2.25;;;14.70;99.90;;;;;;5052539;28;20408;-65
2022/10/27 01:55:44;;;;;;;7.55;2.38;;;14.70;99.90;;;;;;5052955;28;20070;-64
2022/10/27 01:58:13;;;;;;;6.13;2.20;;;14.60;99.90;;;;;;5052340;28;20040;-64
2022/10/27 02:01:24;;;;;;;7.97;2.17;;;14.70;99.90;;;;;;5052185;28;20026;-64
2022/10/27 02:04:00;;;;;;;6.07;2.58;;;14.70;99.90;;;;;;5052084;28;20031;-65
2022/10/27 02:06:39;;;;;;;8.50;2.95;;;14.60;99.90;;;;;;5052254;28;20029;-65
2022/10/27 02:09:25;;;;;;;5.95;2.28;;;14.50;99.90;;;;;;5052202;28;20044;-65
2022/10/27 02:11:54;;;;;;;5.28;2.15;;;14.50;99.90;;;;;;5052066;28;20068;-64
2022/10/27 02:14:21;;;;;;;5.60;2.13;;;14.50;99.90;;;;;;5052231;28;20036;-64
2022/10/27 02:16:52;;;;;;;5.82;2.33;;;14.50;99.90;;;;;;5051991;28;20287;-64
2022/10/27 02:19:28;;;;;;;7.57;2.58;;;14.40;99.90;;;;;;5051682;28;20044;-64
2022/10/27 02:21:57;;;;;;;5.28;2.50;;;14.40;99.90;;;;;;5051921;28;20029;-64
2022/10/27 02:24:23;;;;;;;6.50;1.95;;;14.50;99.90;;;;;;5051970;28;20036;-65
2022/10/27 02:27:07;;;;;;;6.25;2.15;;;14.40;99.90;;;;;;5034127;28;20029;-65
2022/10/27 02:29:43;;;;;;;7.15;2.33;;;14.30;99.90;;;;;;5051637;28;20494;-64
2022/10/27 02:32:16;;;;;;;7.13;2.20;;;14.30;99.90;;;;;;5051676;28;20634;-64
2022/10/27 02:34:43;;;;;;;6.03;2.30;;;14.30;99.90;;;;;;5051889;28;20071;-65
2022/10/27 02:37:15;;;;;;;5.90;2.28;;;14.30;99.90;;;;;;5051505;28;20029;-64
2022/10/27 02:39:41;;;;;;;5.72;2.47;;;14.20;99.90;;;;;;5051577;28;20032;-64
2022/10/27 02:42:07;;;;;;;5.35;2.75;;;14.20;99.90;;;;;;5051493;28;20536;-64
2022/10/27 02:44:33;;;;;;;6.60;2.60;;;14.20;99.90;;;;;;5051600;28;20029;-64
2022/10/27 02:46:59;;;;;;;7.28;2.33;;;14.20;99.90;;;;;;5051537;28;20029;-64
2022/10/27 02:49:25;;;;;;;7.65;3.03;;;14.30;99.90;;;;;;5051407;28;20033;-64
2022/10/27 02:51:51;;;;;;;7.07;2.70;;;14.30;99.90;;;;;;5051438;28;20029;-64
2022/10/27 02:54:16;;;;;;;6.22;2.63;;;14.20;99.90;;;;;;5051370;28;20029;-64
2022/10/27 02:56:42;;;;;;;7.20;2.47;;;14.30;99.90;;;;;;5051315;28;20111;-65
2022/10/27 02:59:08;;;;;;;5.97;2.70;;;14.20;99.90;;;;;;5051163;28;20037;-64
2022/10/27 03:01:34;;;;;;;7.25;3.15;;;14.20;99.90;;;;;;5051177;28;20040;-64
2022/10/27 03:04:00;;;;;;;7.40;3.08;;;14.10;99.90;;;;;;5051004;28;20029;-64
2022/10/27 03:06:26;;;;;;;8.35;3.60;;;14.10;99.90;;;;;;5051294;28;20029;-64
2022/10/27 03:08:52;;;;;;;9.75;3.38;;;14.10;99.90;;;;;;5051180;28;20025;-64
2022/10/27 03:11:18;;;;;;;9.75;3.30;;;14.00;99.90;;;;;;5051625;28;20037;-64
2022/10/27 03:13:44;;;;;;;5.45;2.78;;;14.00;99.90;;;;;;5051281;28;20029;-64
2022/10/27 03:16:10;;;;;;;6.10;2.50;;;14.00;99.90;;;;;;5051287;28;20040;-65
2022/10/27 03:18:36;;;;;;;6.85;2.42;;;14.00;99.90;;;;;;5051095;28;20036;-65
2022/10/27 03:21:02;;;;;;;7.45;2.63;;;14.00;99.90;;;;;;5033266;28;20025;-64
2022/10/27 03:23:27;;;;;;;8.80;2.40;;;14.00;99.90;;;;;;5050922;28;20029;-64
2022/10/27 03:25:53;;;;;;;4.38;2.25;;;14.00;99.90;;;;;;5050835;28;20032;-65
2022/10/27 03:28:19;;;;;;;5.93;2.40;;;14.00;99.90;;;;;;5050925;28;20033;-65
2022/10/27 03:30:45;;;;;;;6.13;2.22;;;14.00;99.90;;;;;;5050988;28;20071;-64
2022/10/27 03:33:11;;;;;;;5.72;2.47;;;14.00;99.90;;;;;;5050969;28;20028;-64
2022/10/27 03:35:37;;;;;;;4.13;2.25;;;14.00;99.90;;;;;;5016638;28;20033;-63
2022/10/27 03:38:03;;;;;;;6.30;2.55;;;14.00;99.90;;;;;;5050920;28;20025;-65
2022/10/27 03:40:30;;;;;;;6.40;2.35;;;14.00;99.90;;;;;;5050947;28;20418;-64
2022/10/27 03:42:59;;;;;;;6.03;2.20;;;14.00;99.90;;;;;;5051012;28;20023;-65
2022/10/27 03:45:25;;;;;;;7.30;2.38;;;14.10;99.90;;;;;;5050990;28;20031;-64
2022/10/27 03:48:12;;;;;;;6.03;2.13;;;14.10;99.90;;;;;;5050866;28;20025;-64
2022/10/27 03:50:49;;;;;;;4.95;2.28;;;14.10;99.90;;;;;;5054507;28;20531;-64
2022/10/27 03:53:17;;;;;;;6.82;2.20;;;14.10;99.90;;;;;;5055180;28;20064;-64
2022/10/27 03:55:43;;;;;;;6.88;2.40;;;14.10;99.90;;;;;;5054692;28;20063;-64
2022/10/27 03:58:12;;;;;;;5.18;2.00;;;14.10;99.90;;;;;;5054856;28;20384;-65
2022/10/27 04:00:38;;;;;;;6.03;2.00;;;14.20;99.90;;;;;;5054609;28;20032;-66
2022/10/27 04:03:05;;;;;;;8.45;2.35;;;14.10;99.90;;;;;;5036476;28;20037;-65
2022/10/27 04:05:31;;;;;;;7.88;2.20;;;14.10;99.90;;;;;;5054424;28;20028;-65
2022/10/27 04:07:57;;;;;;;5.82;1.77;;;14.20;99.90;;;;;;5054494;28;20033;-66
2022/10/27 04:10:24;;;;;;;8.75;2.15;;;14.20;99.90;;;;;;5036785;28;20037;-65
2022/10/27 04:12:54;;;;;;;7.03;2.00;;;14.20;99.90;;;;;;5054386;28;20032;-65
2022/10/27 04:15:23;;;;;;;9.82;2.50;;;14.20;99.90;;;;;;5054828;28;20055;-65
2022/10/27 04:17:52;;;;;;;9.03;2.03;;;14.20;99.90;;;;;;5054545;28;20033;-65
2022/10/27 04:20:18;;;;;;;8.23;2.72;;;14.30;99.90;;;;;;5054415;28;20483;-65
2022/10/27 04:22:44;;;;;;;4.38;1.70;;;14.30;99.90;;;;;;5054544;28;20029;-65
2022/10/27 04:25:10;;;;;;;7.30;2.00;;;14.30;99.90;;;;;;5054564;28;20397;-65
2022/10/27 04:27:36;;;;;;;6.10;1.80;;;14.40;99.90;;;;;;5054320;28;20029;-65
2022/10/27 04:30:03;;;;;;;6.30;1.80;;;14.40;99.90;;;;;;5054161;28;20025;-65
2022/10/27 04:32:29;;;;;;;4.45;1.70;;;14.40;99.90;;;;;;5054144;28;20017;-66
2022/10/27 04:34:56;;;;;;;5.25;2.05;;;14.40;99.90;;;;;;5054252;28;20393;-65
2022/10/27 04:37:22;;;;;;;5.70;1.90;;;14.40;99.90;;;;;;5054203;28;20037;-65
2022/10/27 04:39:48;;;;;;;6.75;1.83;;;14.40;99.90;;;;;;5053989;28;20087;-66
2022/10/27 04:42:14;;;;;;;4.78;2.00;;;14.50;99.90;;;;;;5054164;28;20522;-66
2022/10/27 04:44:40;;;;;;;7.32;1.83;;;14.50;99.90;;;;;;5054123;28;20041;-65
2022/10/27 04:47:06;;;;;;;6.07;1.77;;;14.50;99.90;;;;;;5053857;28;20033;-66
2022/10/27 04:49:33;;;;;;;5.38;1.90;;;14.50;99.90;;;;;;5054134;28;20035;-65
2022/10/27 04:51:59;;;;;;;6.70;1.88;;;14.50;99.90;;;;;;5054395;28;20115;-65
2022/10/27 04:54:24;;;;;;;4.60;2.08;;;14.50;99.90;;;;;;5054181;28;20389;-65
2022/10/27 04:56:51;;;;;;;3.67;1.83;;;14.50;99.90;;;;;;5053772;28;20437;-65
2022/10/27 04:59:17;;;;;;;8.75;2.30;;;14.50;99.90;;;;;;5053614;28;20591;-65
2022/10/27 05:01:43;;;;;;;6.05;2.40;;;14.50;99.90;;;;;;5052560;28;20500;-65
2022/10/27 05:04:09;;;;;;;7.05;2.30;;;14.50;99.90;;;;;;5053627;28;20025;-66
2022/10/27 05:06:35;;;;;;;6.85;2.15;;;14.50;99.90;;;;;;5053639;28;20021;-66
2022/10/27 05:09:01;;;;;;;7.20;2.22;;;14.50;99.90;;;;;;5053431;28;20600;-65
2022/10/27 05:11:27;;;;;;;5.13;2.20;;;14.50;99.90;;;;;;5053679;28;20154;-66
2022/10/27 05:13:53;;;;;;;5.03;2.10;;;14.50;99.90;;;;;;5053665;28;20082;-65
2022/10/27 05:16:19;;;;;;;7.05;2.35;;;14.40;99.90;;;;;;5053633;28;20032;-66
2022/10/27 05:18:45;;;;;;;9.48;3.17;;;14.40;99.90;;;;;;5053776;28;20424;-66
2022/10/27 05:21:10;;;;;;;6.95;2.97;;;14.40;99.90;;;;;;5053755;28;20028;-65
2022/10/27 05:23:36;;;;;;;6.18;2.83;;;14.40;99.90;;;;;;5053653;28;20032;-65
2022/10/27 05:26:02;;;;;;;9.02;2.42;;;14.40;99.90;;;;;;5053256;28;20115;-66
2022/10/27 05:28:28;;;;;;;6.93;3.05;;;14.40;99.90;;;;;;5053329;28;20339;-66
2022/10/27 05:30:58;;;;;;;8.13;4.45;;;14.40;99.90;;;;;;5052973;28;20029;-66
2022/10/27 05:33:25;;;;;;;8.10;3.40;;;14.40;99.90;;;;;;5053279;28;20115;-65
2022/10/27 05:35:51;;;;;;;9.18;2.90;;;14.40;99.90;;;;;;5053048;28;20036;-65
2022/10/27 05:38:18;;;;;;;8.13;3.78;;;14.30;99.90;;;;;;5053441;28;20065;-65
2022/10/27 05:40:44;;;;;;;7.35;3.50;;;14.20;99.90;;;;;;5053262;28;20037;-65
2022/10/27 05:43:10;;;;;;;7.85;3.33;;;14.20;99.90;;;;;;5053100;28;20025;-65
2022/10/27 05:45:37;;;;;;;6.45;3.33;;;14.20;99.90;;;;;;5053027;28;20025;-66
2022/10/27 05:48:08;;;;;;;12.13;3.38;;;14.20;99.90;;;;;;5052878;28;20040;-65
2022/10/27 05:50:35;;;;;;;8.00;3.45;;;14.20;99.90;;;;;;5034616;28;20029;-66
2022/10/27 05:53:01;;;;;;;7.95;3.00;;;14.10;99.90;;;;;;5052861;28;20029;-65
2022/10/27 05:55:27;;;;;;;6.75;2.67;;;14.10;99.90;;;;;;5052810;28;20072;-65
2022/10/27 05:57:55;;;;;;;8.20;2.67;;;14.10;99.90;;;;;;5052584;28;20061;-65
2022/10/27 06:00:23;;;;;;;7.75;3.33;;;14.00;99.90;;;;;;5052624;28;20052;-65
2022/10/27 06:02:49;;;;;;;7.40;2.60;;;14.10;99.90;;;;;;5053030;28;20507;-65
2022/10/27 06:05:16;;;;;;;8.77;2.75;;;14.10;99.90;;;;;;5052850;28;20489;-65
2022/10/27 06:07:42;;;;;;;8.25;3.92;;;14.00;99.90;;;;;;5052629;28;20440;-66
2022/10/27 06:10:08;;;;;;;8.73;4.07;;;14.10;99.90;;;;;;5052423;28;20071;-65
2022/10/27 06:12:34;;;;;;;9.45;4.07;;;14.10;99.90;;;;;;5052116;28;20366;-66
2022/10/27 06:15:00;;;;;;;9.32;3.67;;;14.10;99.90;;;;;;5052627;28;20039;-65
2022/10/27 06:17:26;;;;;;;8.13;3.55;;;14.10;99.90;;;;;;5052649;28;20513;-66
2022/10/27 06:19:52;;;;;;;6.90;3.38;;;14.10;99.90;;;;;;5052406;28;20114;-65
2022/10/27 06:22:18;;;;;;;7.75;3.08;;;14.20;99.90;;;;;;5052530;28;20036;-66
2022/10/27 06:24:44;;;;;;;6.53;3.15;;;14.10;99.90;;;;;;5052309;28;20032;-66
2022/10/27 06:27:10;;;;;;;8.43;2.85;;;14.10;99.90;;;;;;5052029;28;20033;-66
2022/10/27 06:29:36;;;;;;;7.88;3.25;;;14.10;99.90;;;;;;5052514;28;20115;-66
2022/10/27 06:32:02;;;;;;;6.57;2.88;;;14.20;99.90;;;;;;5052534;28;20029;-66
2022/10/27 06:34:28;;;;;;;6.65;3.10;;;14.20;99.90;;;;;;5052434;28;20033;-66
2022/10/27 06:36:54;;;;;;;6.95;3.28;;;14.20;99.90;;;;;;5052462;28;20124;-66
2022/10/27 06:39:20;;;;;;;6.60;3.33;;;14.20;99.90;;;;;;5052168;28;20116;-66
2022/10/27 06:41:48;;;;;;;10.70;3.87;;;14.20;99.90;;;;;;5034695;28;20037;-66
2022/10/27 06:44:22;;;;;;;6.70;3.33;;;14.20;99.90;;;;;;5033977;28;20482;-66
2022/10/27 06:46:48;;;;;;;7.88;3.40;;;14.20;99.90;;;;;;5033896;28;20112;-66
2022/10/27 06:49:14;;;;;;;11.27;4.15;;;14.20;99.90;;;;;;5051655;28;20426;-66
2022/10/27 06:51:40;;;;;;;9.00;3.20;;;14.20;99.90;;;;;;5051622;28;20032;-67
2022/10/27 06:54:06;;;;;;;7.30;2.83;;;14.20;99.90;;;;;;5051651;28;20082;-66
2022/10/27 06:56:33;;;;;;;10.45;2.80;;;14.20;99.90;;;;;;5051324;28;20036;-65
2022/10/27 06:59:00;;;;;;;9.18;2.60;;;14.20;99.90;;;;;;5051945;28;20386;-66
2022/10/27 07:01:26;;;;;;;5.53;2.55;;;14.20;99.90;;;;;;5034040;28;20033;-67
2022/10/27 07:03:52;;;;;;;8.50;2.80;;;14.30;99.90;;;;;;5051634;28;20112;-66
2022/10/27 07:06:18;;;;;;;6.78;2.72;;;14.20;99.90;;;;;;5051765;28;20111;-66
2022/10/27 07:08:44;;;;;;;5.70;2.20;;;14.30;99.90;;;;;;5051424;28;20029;-67
2022/10/27 07:11:10;;;;;;;7.28;2.50;;;14.30;99.90;;;;;;5051621;28;20033;-66
2022/10/27 07:13:36;;;;;;;6.03;2.28;;;14.30;99.90;;;;;;5051485;28;20048;-66
2022/10/27 07:16:02;;;;;;;7.80;2.83;;;14.40;99.90;;;;;;5051776;28;20044;-66
2022/10/27 07:18:28;;;;;;;11.05;5.70;;;14.40;99.90;;;;;;5034350;28;20041;-66
2022/10/27 07:20:54;;;;;;;12.85;5.95;;;14.50;99.90;;;;;;5051974;28;20032;-66
2022/10/27 07:23:20;;;;;;;6.32;3.83;;;14.50;99.90;;;;;;5050856;28;20032;-66
2022/10/27 07:25:49;;;;;;;10.70;3.67;;;14.50;99.90;;;;;;5051767;28;20428;-66
2022/10/27 07:28:16;;;;;;;6.18;2.65;;;14.60;99.90;;;;;;5064487;23;20559;-85
2022/10/27 07:30:43;;;;;;;8.32;3.58;;;14.60;99.90;;;;;;5030613;28;20105;-85
2022/10/27 07:33:12;;;;;;;9.63;4.32;;;14.60;99.90;;;;;;5031109;28;20052;-85
2022/10/27 07:35:37;;;;;;;10.13;3.45;;;14.70;99.90;;;;;;5030998;28;20379;-85
2022/10/27 07:38:03;;;;;;;7.38;3.60;;;14.70;99.90;;;;;;5046149;28;20040;-85
2022/10/27 07:40:29;;;;;;;5.45;3.17;;;14.70;99.90;;;;;;5030817;28;20025;-85
2022/10/27 07:42:56;;;;;;;6.70;3.28;;;14.80;99.90;;;;;;5030963;28;20108;-85
2022/10/27 07:45:24;;;;;;;6.63;2.90;;;14.90;99.90;;;;;;5030737;28;20033;-87
2022/10/27 07:47:55;;;;;;;5.97;2.30;;;14.90;99.90;;;;;;5028978;28;20397;-85
2022/10/27 07:50:28;;;;;;;5.13;2.50;;;15.00;99.90;;;;;;5030786;28;20032;-85
2022/10/27 07:52:55;;;;;;;4.70;2.10;;;15.00;99.90;;;;;;5029294;28;20393;-85
2022/10/27 07:55:23;;;;;;;2.08;1.40;;;15.10;99.90;;;;;;5030819;28;20387;-87
2022/10/27 07:58:02;;;;;;;3.92;2.00;;;15.10;99.90;;;;;;5029318;28;20037;-87
2022/10/27 08:00:29;;;;;;;4.40;1.90;;;15.20;99.90;;;;;;5032471;28;20033;-86
2022/10/27 08:02:57;;;;;;;6.00;2.17;;;15.20;99.90;;;;;;5050792;28;20017;-85
2022/10/27 08:05:23;;;;;;;6.45;2.90;;;15.30;99.90;;;;;;5032759;28;20025;-85
2022/10/27 08:07:49;;;;;;;8.48;2.30;;;15.30;99.90;;;;;;5050366;28;20079;-85
2022/10/27 08:10:15;;;;;;;6.00;2.47;;;15.40;99.90;;;;;;5032796;28;20071;-86
2022/10/27 08:12:42;;;;;;;7.10;2.30;;;15.50;99.90;;;;;;5032865;28;20025;-85
2022/10/27 08:15:09;;;;;;;5.40;1.90;;;15.50;99.90;;;;;;5050575;28;20021;-85
2022/10/27 08:17:34;;;;;;;5.47;2.47;;;15.50;99.90;;;;;;5050176;28;20025;-86
2022/10/27 08:20:03;;;;;;;6.10;3.00;;;15.50;99.90;;;;;;5032335;28;20032;-85
2022/10/27 08:22:29;;;;;;;5.93;2.90;;;15.60;99.90;;;;;;5032704;28;20128;-85
2022/10/27 08:24:54;;;;;;;5.88;2.53;;;15.60;99.90;;;;;;5032851;28;20616;-85
2022/10/27 08:27:20;;;;;;;6.45;2.47;;;15.60;99.90;;;;;;5050465;28;20025;-85
2022/10/27 08:29:46;;;;;;;6.18;1.85;;;15.70;99.90;;;;;;5050255;28;20033;-86
2022/10/27 08:32:12;;;;;;;5.82;2.00;;;15.80;99.90;;;;;;5050289;28;20032;-85
2022/10/27 08:34:38;;;;;;;6.70;2.53;;;15.80;99.90;;;;;;5051289;28;20033;-85
2022/10/27 08:37:03;;;;;;;6.28;1.65;;;15.80;99.90;;;;;;5053843;28;20029;-85
2022/10/27 08:39:29;;;;;;;5.10;2.13;;;15.90;99.90;;;;;;5035792;28;20033;-85
2022/10/27 08:42:06;;;;;;;3.83;1.80;;;15.90;99.90;;;;;;5053949;28;20394;-85
2022/10/27 08:44:58;;;;;;;5.93;1.83;;;15.90;99.90;;;;;;5054063;28;20025;-86
2022/10/27 08:47:25;;;;;;;4.80;1.88;;;15.90;99.90;;;;;;5053606;28;20021;-85
2022/10/27 08:49:56;;;;;;;3.63;1.67;;;15.90;99.90;;;;;;5053734;28;20032;-85
2022/10/27 08:52:43;;;;;;;4.03;1.50;;;16.00;99.90;;;;;;5053814;28;20029;-85
2022/10/27 08:55:11;;;;;;;3.17;1.70;;;16.00;99.90;;;;;;5053514;28;20041;-86
2022/10/27 08:57:41;;;;;;;3.88;1.30;;;16.10;99.90;;;;;;5035416;28;20112;-85
2022/10/27 09:00:11;;;;;;;4.57;1.35;;;16.10;99.90;;;;;;5053560;28;20021;-85
2022/10/27 09:03:14;;;;;;;10.95;1.90;;;16.20;99.90;;;;;;5035646;28;20169;-86
2022/10/27 09:05:51;;;;;;;6.47;2.00;;;16.20;99.90;;;;;;5035404;28;20405;-86
2022/10/27 09:08:46;;;;;;;5.32;2.55;;;16.30;99.90;;;;;;5053500;28;20041;-86
2022/10/27 09:11:27;;;;;;;4.47;2.10;;;16.30;99.90;;;;;;5035615;28;20025;-86
2022/10/27 09:14:26;;;;;;;7.32;1.75;;;16.40;99.90;;;;;;5053447;28;20367;-86
2022/10/27 09:17:14;;;;;;;5.53;1.70;;;16.40;99.90;;;;;;5053179;28;20024;-86
2022/10/27 09:19:47;;;;;;;5.10;1.77;;;16.40;99.90;;;;;;5052938;28;20037;-86
2022/10/27 09:22:18;;;;;;;5.82;2.95;;;16.40;99.90;;;;;;5053170;28;20389;-86
2022/10/27 09:24:58;;;;;;;5.85;2.05;;;16.40;99.90;;;;;;5052953;28;20028;-86
2022/10/27 09:27:24;;;;;;;3.17;1.67;;;16.50;99.90;;;;;;5052739;28;20037;-86
2022/10/27 09:29:51;;;;;;;5.15;1.80;;;16.50;99.90;;;;;;5052910;28;20029;-86
2022/10/27 09:32:23;;;;;;;5.13;2.05;;;16.50;99.90;;;;;;5053116;28;20442;-86
2022/10/27 09:35:08;;;;;;;6.45;1.77;;;16.50;99.90;;;;;;5052927;28;20040;-86
2022/10/27 09:37:40;;;;;;;7.30;1.63;;;16.60;99.90;;;;;;5052660;28;20511;-86
2022/10/27 09:40:15;;;;;;;5.25;1.83;;;16.60;99.90;;;;;;5052722;28;20040;-86
2022/10/27 09:42:41;;;;;;;5.95;2.22;;;16.60;99.90;;;;;;5052809;28;20025;-86
2022/10/27 09:45:27;;;;;;;5.53;1.90;;;16.70;99.90;;;;;;5052557;28;20036;-86
2022/10/27 09:48:02;;;;;;;6.63;2.35;;;16.80;99.90;;;;;;5052150;28;20132;-85
2022/10/27 09:50:49;;;;;;;7.28;2.15;;;16.80;99.90;;;;;;5018045;28;20451;-86
2022/10/27 09:53:35;;;;;;;5.45;2.00;;;16.90;99.90;;;;;;5052592;28;20032;-86
2022/10/27 09:56:01;;;;;;;10.73;2.83;;;17.00;99.90;;;;;;5052287;28;20029;-86
2022/10/27 09:58:27;;;;;;;6.13;2.70;;;17.00;99.90;;;;;;5034778;28;20039;-86
2022/10/27 10:00:57;;;;;;;6.63;2.20;;;17.10;99.90;;;;;;5052433;28;20045;-86
2022/10/27 10:03:23;;;;;;;3.55;2.05;;;17.10;99.90;;;;;;5052282;28;20036;-86
2022/10/27 10:06:01;;;;;;;6.30;2.20;;;17.10;99.90;;;;;;5034427;28;20033;-86
2022/10/27 10:08:30;;;;;;;4.35;1.80;;;17.10;99.90;;;;;;5052241;28;20025;-86
2022/10/27 10:11:00;;;;;;;4.35;1.35;;;17.20;99.90;;;;;;5052197;28;20064;-86
2022/10/27 10:13:28;;;;;;;4.00;1.25;;;17.20;99.90;;;;;;5034505;28;20051;-86
2022/10/27 10:16:24;;;;;;;4.40;1.50;;;17.30;99.90;;;;;;5034217;28;20047;-86
2022/10/27 10:19:03;;;;;;;6.47;1.67;;;17.30;99.90;;;;;;5035020;28;20059;-86
2022/10/27 10:21:45;;;;;;;;;;;17.30;99.90;;;;;;5052465;28;20501;-86
2022/10/27 10:24:27;;;;;;;6.47;2.10;;;17.30;99.90;;;;;;5052000;28;19909;-86
2022/10/27 10:26:55;;;;;;;4.85;2.03;;;17.30;99.90;;;;;;5051652;28;20033;-86
2022/10/27 10:29:48;;;;;;;4.78;1.50;;;17.30;99.90;;;;;;5033543;28;20076;-86
2022/10/27 10:32:21;;;;;;;4.45;1.60;;;17.30;99.90;;;;;;5034164;28;20470;-86
2022/10/27 10:34:47;;;;;;;5.85;1.75;;;17.30;99.90;;;;;;5034082;28;20043;-87
2022/10/27 10:37:33;;;;;;;6.00;2.17;;;17.30;99.90;;;;;;5017218;28;20037;-86
2022/10/27 10:40:12;;;;;;;5.28;1.58;;;17.30;99.90;;;;;;5033539;28;20067;-86
2022/10/27 10:42:58;;;;;;;5.82;1.50;;;17.40;99.90;;;;;;5051603;28;20504;-86
2022/10/27 10:45:26;;;;;;;5.55;2.08;;;17.50;99.90;;;;;;5033870;28;20028;-86
2022/10/27 10:48:27;;;;;;;7.13;2.25;;;17.60;99.90;;;;;;5051349;28;20031;-86
2022/10/27 10:50:53;;;;;;;5.47;1.80;;;17.70;99.90;;;;;;5051315;28;20037;-86
2022/10/27 10:53:26;;;;;;;4.97;2.13;;;17.70;99.90;;;;;;5033579;28;20120;-86
2022/10/27 10:55:54;;;;;;;6.35;2.17;;;17.70;99.90;;;;;;5051311;28;20044;-86
2022/10/27 10:58:22;;;;;;;7.50;2.08;;;17.80;99.90;;;;;;5050367;28;20029;-86
2022/10/27 11:01:00;;;;;;;7.00;1.85;;;17.70;99.90;;;;;;5051235;28;20500;-86
2022/10/27 11:03:36;;;;;;;8.27;2.95;;;17.70;99.90;;;;;;5051574;28;20482;-86
2022/10/27 11:06:05;;;;;;;4.68;2.50;;;17.80;99.90;;;;;;5051238;28;20036;-86
2022/10/27 11:08:37;;;;;;;;;;;17.70;99.90;;;;;;5033692;28;20059;-86
2022/10/27 11:11:05;;;;;;;6.68;2.50;;;17.70;99.90;;;;;;5051248;28;19915;-86
2022/10/27 11:13:49;;;;;;;8.30;3.17;;;17.80;99.90;;;;;;5051219;28;20044;-86
2022/10/27 11:16:15;;;;;;;7.03;3.30;;;17.80;99.90;;;;;;5033378;28;20563;-86
2022/10/27 11:18:52;;;;;;;8.65;2.70;;;17.90;99.90;;;;;;5033198;28;20121;-86
2022/10/27 11:21:38;;;;;;;5.25;2.28;;;17.90;99.90;;;;;;5033112;28;20036;-86
2022/10/27 11:24:13;;;;;;;6.35;3.08;;;17.90;99.90;;;;;;5051343;28;20033;-86
2022/10/27 11:26:56;;;;;;;7.82;2.33;;;17.90;99.90;;;;;;5051036;28;20033;-86
2022/10/27 11:29:32;;;;;;;8.80;2.40;;;17.90;99.90;;;;;;5032631;28;20037;-86
2022/10/27 11:32:33;;;;;;;5.95;2.42;;;17.90;99.90;;;;;;5051182;28;20029;-86
2022/10/27 11:35:21;;;;;;;7.15;3.00;;;18.00;99.90;;;;;;5051313;28;20417;-86
2022/10/27 11:37:57;;;;;;;6.70;2.90;;;18.00;99.90;;;;;;5050543;28;20040;-86
2022/10/27 11:40:38;;;;;;;6.60;2.88;;;18.00;99.90;;;;;;5050710;28;20492;-86
2022/10/27 11:43:14;;;;;;;6.10;2.05;;;18.00;99.90;;;;;;5033142;28;20029;-86
2022/10/27 11:46:07;;;;;;;6.55;2.70;;;18.00;99.90;;;;;;5033072;28;20432;-86
2022/10/27 11:48:49;;;;;;;6.30;2.40;;;17.90;99.90;;;;;;5039812;28;20099;-86
2022/10/27 11:51:30;;;;;;;7.90;3.15;;;17.90;99.90;;;;;;5032910;28;20036;-86
2022/10/27 11:53:56;;;;;;;8.73;2.72;;;17.90;99.90;;;;;;5050753;28;20033;-86
2022/10/27 11:56:25;;;;;;;6.38;2.28;;;18.00;99.90;;;;;;5016224;28;20032;-86
2022/10/27 11:59:00;;;;;;;3.90;1.90;;;18.10;99.90;;;;;;5050348;28;20033;-86
2022/10/27 12:01:36;;;;;;;8.32;2.50;;;18.10;99.90;;;;;;5050829;28;20029;-86
2022/10/27 12:04:04;;;;;;;7.88;2.30;;;18.20;99.90;;;;;;5033075;28;20021;-86
2022/10/27 12:06:44;;;;;;;5.28;2.00;;;18.20;99.90;;;;;;5032892;28;20059;-87
2022/10/27 12:09:09;;;;;;;6.05;2.30;;;18.20;99.90;;;;;;5050579;28;20029;-86
2022/10/27 12:11:54;;;;;;;7.25;2.35;;;18.20;99.90;;;;;;5036965;28;20390;-86
2022/10/27 12:14:37;;;;;;;6.80;2.38;;;18.20;99.90;;;;;;5054447;28;20450;-86
2022/10/27 12:17:19;;;;;;;6.60;2.53;;;18.30;99.90;;;;;;5054064;28;20029;-86
2022/10/27 12:19:47;;;;;;;7.38;1.88;;;18.40;99.90;;;;;;5054053;28;20452;-86
2022/10/27 12:22:25;;;;;;;4.78;2.10;;;18.40;99.90;;;;;;5020046;28;20388;-86
2022/10/27 12:24:58;;;;;;;6.28;2.45;;;18.50;99.90;;;;;;5054182;28;20028;-86
2022/10/27 12:27:37;;;;;;;6.03;2.17;;;18.50;99.90;;;;;;5036002;28;20500;-86
2022/10/27 12:30:11;;;;;;;6.13;2.00;;;18.50;99.90;;;;;;5019474;28;20495;-86
2022/10/27 12:32:48;;;;;;;5.38;2.88;;;18.60;99.90;;;;;;5054467;28;20064;-86
2022/10/27 12:35:33;;;;;;;6.65;2.42;;;18.50;99.90;;;;;;5054363;28;20033;-86
2022/10/27 12:38:31;;;;;;;6.30;2.38;;;18.60;99.90;;;;;;5036104;28;20033;-86
2022/10/27 12:41:21;;;;;;;6.80;2.30;;;18.50;99.90;;;;;;5036508;28;20082;-86
2022/10/27 12:44:09;;;;;;;8.13;2.20;;;18.60;99.90;;;;;;5019871;28;20552;-87
2022/10/27 12:46:55;;;;;;;4.82;2.25;;;18.60;99.90;;;;;;5053603;28;20037;-87
2022/10/27 12:49:39;;;;;;;6.13;2.03;;;18.60;99.90;;;;;;5053681;28;20029;-86
2022/10/27 12:52:20;;;;;;;6.88;2.53;;;18.70;99.90;;;;;;5053922;28;20037;-87
2022/10/27 12:55:00;;;;;;;5.40;1.63;;;18.70;99.90;;;;;;5035713;28;20037;-87
2022/10/27 12:57:46;;;;;;;5.60;2.10;;;18.70;99.90;;;;;;5035704;28;20033;-86
2022/10/27 13:00:20;;;;;;;5.97;1.63;;;18.70;99.90;;;;;;5053472;28;20087;-86
2022/10/27 13:03:01;;;;;;;6.95;2.10;;;18.50;99.90;;;;;;5053703;28;20096;-86
2022/10/27 13:05:53;;;;;;;6.35;2.28;;;18.50;99.90;;;;;;5053952;28;20041;-86
2022/10/27 13:08:49;;;;;;;4.88;1.63;;;18.60;99.90;;;;;;5053639;28;20428;-86
2022/10/27 13:12:11;;;;;;;9.00;2.30;;;18.60;99.90;;;;;;5053605;28;20033;-86